Time;durP1;ratioP1;P1;durP2;ratioP2;P2;SDS_P1;SDS_P2;PMS_P1;PMS_P2;Temp;Humidity;BMP_temperature;BMP_pressure;BME280_temperature;BME280_humidity;BME280_pressure;Samples;Min_cycle;Max_cycle;Signal;HPM_P1;HPM_P2
2021/11/04 00:01:05;;;;;;;106.35;23.25;;;6.20;99.90;;;;;;4939859;29;20044;-72
2021/11/04 00:03:31;;;;;;;82.65;21.67;;;6.10;99.90;;;;;;4911224;29;20076;-72
2021/11/04 00:05:56;;;;;;;90.68;22.95;;;6.00;99.90;;;;;;4909881;29;20064;-72
2021/11/04 00:08:23;;;;;;;166.27;26.85;;;6.00;99.90;;;;;;4908459;29;20135;-72
2021/11/04 00:10:49;;;;;;;97.28;24.95;;;5.90;99.90;;;;;;4907124;29;20099;-72
2021/11/04 00:13:15;;;;;;;117.22;23.80;;;5.90;99.90;;;;;;4942142;29;20055;-72
2021/11/04 00:15:41;;;;;;;81.07;23.75;;;6.00;99.90;;;;;;4910417;29;20048;-72
2021/11/04 00:18:10;;;;;;;95.05;23.63;;;6.00;99.90;;;;;;4910399;29;20059;-72
2021/11/04 00:20:36;;;;;;;102.47;22.67;;;6.00;99.90;;;;;;4911048;29;20045;-72
2021/11/04 00:23:02;;;;;;;121.07;24.08;;;6.00;99.90;;;;;;4910932;29;20128;-72
2021/11/04 00:25:29;;;;;;;102.80;21.95;;;6.00;99.90;;;;;;4909494;29;20297;-72
2021/11/04 00:27:55;;;;;;;196.43;27.83;;;6.00;99.90;;;;;;4909964;29;20116;-72
2021/11/04 00:30:20;;;;;;;178.50;27.77;;;6.00;99.90;;;;;;4907719;29;20530;-72
2021/11/04 00:32:49;;;;;;;143.60;25.33;;;5.90;99.90;;;;;;4909705;29;20072;-72
2021/11/04 00:35:15;;;;;;;120.35;22.65;;;6.00;99.90;;;;;;4909535;29;20057;-72
2021/11/04 00:37:42;;;;;;;143.10;24.65;;;6.00;99.90;;;;;;4909507;29;20065;-72
2021/11/04 00:40:09;;;;;;;71.20;20.60;;;6.00;99.90;;;;;;4906254;29;20060;-72
2021/11/04 00:42:34;;;;;;;192.48;23.65;;;6.00;99.90;;;;;;4910507;29;20037;-71
2021/11/04 00:45:00;;;;;;;113.40;22.13;;;5.90;99.90;;;;;;4902985;29;20055;-71
2021/11/04 00:47:26;;;;;;;129.63;22.38;;;5.90;99.90;;;;;;4907305;29;20055;-71
2021/11/04 00:49:52;;;;;;;98.15;21.23;;;5.90;99.90;;;;;;4941460;29;20490;-73
2021/11/04 00:52:17;;;;;;;66.63;19.00;;;5.90;99.90;;;;;;4911165;29;20045;-72
2021/11/04 00:54:43;;;;;;;88.53;20.40;;;5.90;99.90;;;;;;4911189;29;20087;-72
2021/11/04 00:57:09;;;;;;;130.23;20.40;;;5.80;99.90;;;;;;4938116;29;20053;-72
2021/11/04 00:59:34;;;;;;;110.00;20.08;;;5.80;99.90;;;;;;4907505;29;20051;-72
2021/11/04 01:02:00;;;;;;;53.47;18.13;;;5.80;99.90;;;;;;4940531;29;20056;-72
2021/11/04 01:04:26;;;;;;;109.85;19.25;;;5.80;99.90;;;;;;4902246;29;20053;-73
2021/11/04 01:06:51;;;;;;;63.47;19.58;;;5.80;99.90;;;;;;4909357;29;20052;-73
2021/11/04 01:09:17;;;;;;;107.90;19.77;;;6.00;99.90;;;;;;4926011;29;20072;-72
2021/11/04 01:11:43;;;;;;;62.05;18.33;;;6.00;99.90;;;;;;4906198;29;20049;-72
2021/11/04 01:14:09;;;;;;;98.30;19.83;;;6.00;99.90;;;;;;4908788;29;20048;-72
2021/11/04 01:16:34;;;;;;;120.75;20.92;;;6.10;99.90;;;;;;4892092;29;20040;-72
2021/11/04 01:19:01;;;;;;;123.43;18.83;;;6.10;99.90;;;;;;4908761;29;20061;-73
2021/11/04 01:21:27;;;;;;;289.20;25.25;;;6.20;99.90;;;;;;4924130;29;20048;-73
2021/11/04 01:23:53;;;;;;;385.58;27.55;;;6.10;99.90;;;;;;4926067;29;20053;-72
2021/11/04 01:26:19;;;;;;;294.35;24.10;;;6.00;99.90;;;;;;4944733;29;20516;-72
2021/11/04 01:28:45;;;;;;;52.53;17.13;;;6.00;99.90;;;;;;4941591;29;20048;-72
2021/11/04 01:31:11;;;;;;;35.65;17.77;;;6.00;99.90;;;;;;4908327;29;20116;-72
2021/11/04 01:33:36;;;;;;;49.88;16.88;;;6.10;99.90;;;;;;4924237;29;20044;-72
2021/11/04 01:36:02;;;;;;;256.23;24.17;;;6.20;99.90;;;;;;4909578;29;20148;-72
2021/11/04 01:38:28;;;;;;;192.10;21.13;;;6.20;99.90;;;;;;4919721;29;20071;-72
2021/11/04 01:40:54;;;;;;;251.57;23.33;;;6.10;99.90;;;;;;4910661;29;20059;-72
2021/11/04 01:43:19;;;;;;;190.45;20.33;;;6.00;99.90;;;;;;4904838;29;20135;-71
2021/11/04 01:45:48;;;;;;;125.72;19.10;;;6.00;99.90;;;;;;4940793;29;20080;-71
2021/11/04 01:48:15;;;;;;;173.10;21.83;;;6.10;99.90;;;;;;4908422;29;20056;-71
2021/11/04 01:50:41;;;;;;;64.93;17.67;;;6.10;99.90;;;;;;4908397;29;20048;-71
2021/11/04 01:53:06;;;;;;;38.13;16.45;;;6.10;99.90;;;;;;4940501;29;20080;-71
2021/11/04 01:55:32;;;;;;;59.67;15.55;;;6.20;99.90;;;;;;4939817;29;20052;-71
2021/11/04 01:57:58;;;;;;;127.03;18.80;;;6.20;99.90;;;;;;4941018;29;20430;-72
2021/11/04 02:00:28;;;;;;;87.18;17.08;;;6.30;99.90;;;;;;4909636;29;20052;-71
2021/11/04 02:03:18;;;;;;;150.65;18.30;;;6.30;99.90;;;;;;4907962;29;20052;-71
2021/11/04 02:06:09;;;;;;;;;;;6.10;99.90;;;;;;4924337;29;20088;-71
2021/11/04 02:08:53;;;;;;;;;;;6.10;99.90;;;;;;4909752;29;19923;-71
2021/11/04 02:11:34;;;;;;;137.75;16.83;;;6.10;99.90;;;;;;4938608;29;19930;-71
2021/11/04 02:14:02;;;;;;;34.05;13.38;;;6.10;99.90;;;;;;4908163;29;20063;-71
2021/11/04 02:16:31;;;;;;;40.15;13.90;;;6.10;99.90;;;;;;4907739;29;20326;-71
2021/11/04 02:19:04;;;;;;;229.93;20.05;;;6.10;99.90;;;;;;4908692;29;20052;-71
2021/11/04 02:21:47;;;;;;;170.30;16.23;;;6.00;99.90;;;;;;4908170;29;20060;-71
2021/11/04 02:24:23;;;;;;;84.57;14.73;;;5.90;99.90;;;;;;4907984;29;20056;-71
2021/11/04 02:26:51;;;;;;;218.70;20.13;;;5.90;99.90;;;;;;4909930;29;20073;-71
2021/11/04 02:29:18;;;;;;;221.02;21.08;;;5.90;99.90;;;;;;4908517;29;20089;-71
2021/11/04 02:31:47;;;;;;;147.82;18.33;;;5.80;99.90;;;;;;4910041;29;20045;-71
2021/11/04 02:34:14;;;;;;;229.48;22.42;;;5.80;99.90;;;;;;4907975;29;20056;-71
2021/11/04 02:36:42;;;;;;;244.80;21.27;;;5.70;99.90;;;;;;4909205;29;20036;-71
2021/11/04 02:39:09;;;;;;;317.73;24.33;;;5.60;99.90;;;;;;4939015;29;20079;-71
2021/11/04 02:41:34;;;;;;;210.57;20.77;;;5.60;99.90;;;;;;4907353;29;20041;-71
2021/11/04 02:44:01;;;;;;;159.02;17.83;;;5.50;99.90;;;;;;4907014;29;20049;-71
2021/11/04 02:46:28;;;;;;;116.20;18.08;;;5.50;99.90;;;;;;4907304;29;20513;-71
2021/11/04 02:48:55;;;;;;;28.60;15.38;;;5.50;99.90;;;;;;4907421;29;20184;-71
2021/11/04 02:51:21;;;;;;;202.90;22.38;;;5.40;99.90;;;;;;4922940;29;20116;-72
2021/11/04 02:53:47;;;;;;;144.27;19.30;;;5.40;99.90;;;;;;4923047;29;20080;-72
2021/11/04 02:56:13;;;;;;;133.20;17.92;;;5.30;99.90;;;;;;4908389;29;20040;-72
2021/11/04 02:58:40;;;;;;;48.78;14.82;;;5.30;99.90;;;;;;4907409;29;20406;-72
2021/11/04 03:01:06;;;;;;;159.90;19.90;;;5.30;99.90;;;;;;4907676;29;20108;-72
2021/11/04 03:03:33;;;;;;;153.60;19.67;;;5.20;99.90;;;;;;4891995;29;20080;-72
2021/11/04 03:05:59;;;;;;;136.88;19.55;;;5.20;99.90;;;;;;4907152;29;20065;-72
2021/11/04 03:08:25;;;;;;;88.50;15.23;;;5.20;99.90;;;;;;4908522;29;20037;-72
2021/11/04 03:10:54;;;;;;;133.68;17.65;;;5.20;99.90;;;;;;4938940;29;20057;-72
2021/11/04 03:13:20;;;;;;;84.65;15.77;;;5.30;99.90;;;;;;4938783;29;20517;-72
2021/11/04 03:15:53;;;;;;;79.28;15.75;;;5.30;99.90;;;;;;4903986;29;20068;-72
2021/11/04 03:18:20;;;;;;;127.13;17.58;;;5.30;99.90;;;;;;4907110;29;20067;-72
2021/11/04 03:20:47;;;;;;;24.88;12.45;;;5.20;99.90;;;;;;4906693;29;20116;-72
2021/11/04 03:23:12;;;;;;;172.65;18.48;;;5.30;99.90;;;;;;4906119;29;20073;-73
2021/11/04 03:25:40;;;;;;;155.60;17.58;;;5.30;99.90;;;;;;4905405;29;20076;-72
2021/11/04 03:28:06;;;;;;;99.93;15.90;;;5.20;99.90;;;;;;4907066;29;20058;-72
2021/11/04 03:30:37;;;;;;;127.75;17.63;;;5.20;99.90;;;;;;4938181;29;20048;-72
2021/11/04 03:33:06;;;;;;;122.35;15.68;;;5.20;99.90;;;;;;4938371;29;20056;-72
2021/11/04 03:35:36;;;;;;;21.80;12.50;;;5.10;99.90;;;;;;4907237;29;20060;-72
2021/11/04 03:38:05;;;;;;;71.78;14.93;;;5.20;99.90;;;;;;4907370;29;20053;-72
2021/11/04 03:40:31;;;;;;;85.47;14.73;;;5.20;99.90;;;;;;4934539;29;20057;-72
2021/11/04 03:42:57;;;;;;;37.55;12.68;;;5.20;99.90;;;;;;4907657;29;20052;-72
2021/11/04 03:45:23;;;;;;;31.08;12.20;;;5.10;99.90;;;;;;4907761;29;20458;-72
2021/11/04 03:47:50;;;;;;;26.38;13.85;;;5.20;99.90;;;;;;4907050;29;20055;-72
2021/11/04 03:50:18;;;;;;;32.13;14.30;;;5.30;99.90;;;;;;4907908;29;20097;-72
2021/11/04 03:52:44;;;;;;;34.50;14.02;;;5.40;99.90;;;;;;4907282;29;20100;-72
2021/11/04 03:55:13;;;;;;;76.95;15.85;;;5.50;99.90;;;;;;4907534;29;20045;-71
2021/11/04 03:57:40;;;;;;;58.50;15.55;;;5.50;99.90;;;;;;4892066;29;20049;-71
2021/11/04 04:00:08;;;;;;;35.05;14.30;;;5.50;99.90;;;;;;4905222;29;20064;-72
2021/11/04 04:02:35;;;;;;;40.38;14.13;;;5.60;99.90;;;;;;4906985;29;20048;-71
2021/11/04 04:05:00;;;;;;;32.78;14.48;;;5.60;99.90;;;;;;4906603;29;20068;-71
2021/11/04 04:07:30;;;;;;;23.42;14.20;;;5.70;99.90;;;;;;4906337;29;20060;-71
2021/11/04 04:09:57;;;;;;;49.80;15.75;;;5.80;99.90;;;;;;4906741;29;20064;-71
2021/11/04 04:12:24;;;;;;;27.13;14.60;;;5.80;99.90;;;;;;4906859;29;20063;-71
2021/11/04 04:14:49;;;;;;;28.02;14.57;;;5.80;99.90;;;;;;4904497;29;20045;-71
2021/11/04 04:17:16;;;;;;;37.83;14.27;;;5.80;99.90;;;;;;4906787;29;20048;-71
2021/11/04 04:19:42;;;;;;;30.92;12.77;;;5.70;99.90;;;;;;4909993;29;20044;-71
2021/11/04 04:22:08;;;;;;;22.08;13.75;;;5.80;99.90;;;;;;4910493;29;20084;-72
2021/11/04 04:24:34;;;;;;;18.63;12.30;;;5.80;99.90;;;;;;4911418;29;20040;-72
2021/11/04 04:27:01;;;;;;;23.63;12.85;;;5.90;99.90;;;;;;4909452;29;20040;-72
2021/11/04 04:29:27;;;;;;;15.18;10.55;;;5.90;99.90;;;;;;4941693;29;20083;-72
2021/11/04 04:31:53;;;;;;;20.10;11.27;;;6.10;99.90;;;;;;4910589;29;20052;-72
2021/11/04 04:34:18;;;;;;;15.60;11.15;;;6.10;99.90;;;;;;4909186;29;20108;-72
2021/11/04 04:36:44;;;;;;;16.35;11.68;;;6.00;99.90;;;;;;4910229;29;20045;-72
2021/11/04 04:39:10;;;;;;;40.70;12.52;;;6.00;99.90;;;;;;4907115;29;20112;-72
2021/11/04 04:41:36;;;;;;;49.03;11.93;;;5.80;99.90;;;;;;4910652;29;20449;-72
2021/11/04 04:44:01;;;;;;;43.17;12.15;;;5.60;99.90;;;;;;4910783;29;20101;-72
2021/11/04 04:46:27;;;;;;;47.38;13.18;;;5.50;99.90;;;;;;4934847;29;20045;-72
2021/11/04 04:48:53;;;;;;;63.72;13.32;;;5.40;99.90;;;;;;4888851;29;20074;-72
2021/11/04 04:51:19;;;;;;;18.83;12.55;;;5.40;99.90;;;;;;4909655;29;20044;-72
2021/11/04 04:53:45;;;;;;;53.35;13.07;;;5.40;99.90;;;;;;4941505;29;20138;-72
2021/11/04 04:56:11;;;;;;;36.33;12.07;;;5.30;99.90;;;;;;4910575;29;20053;-72
2021/11/04 04:58:37;;;;;;;18.42;11.20;;;5.20;99.90;;;;;;4942034;29;20517;-72
2021/11/04 05:01:02;;;;;;;17.17;11.45;;;5.30;99.90;;;;;;4909159;29;20084;-72
2021/11/04 05:03:28;;;;;;;24.98;12.20;;;5.20;99.90;;;;;;4909088;29;20104;-72
2021/11/04 05:05:54;;;;;;;17.55;11.82;;;5.20;99.90;;;;;;4909129;29;20057;-72
2021/11/04 05:08:20;;;;;;;16.80;11.80;;;5.20;99.90;;;;;;4910163;29;20049;-72
2021/11/04 05:10:45;;;;;;;61.53;13.63;;;5.30;99.90;;;;;;4910156;29;20200;-72
2021/11/04 05:13:11;;;;;;;130.50;15.95;;;5.20;99.90;;;;;;4908679;29;20056;-72
2021/11/04 05:15:37;;;;;;;236.75;19.92;;;5.10;99.90;;;;;;4910154;29;20104;-72
2021/11/04 05:18:07;;;;;;;175.18;17.48;;;5.00;99.90;;;;;;4940054;29;20071;-72
2021/11/04 05:20:33;;;;;;;;;;;4.90;99.90;;;;;;4909151;29;20403;-72
2021/11/04 05:22:59;;;;;;;102.40;16.30;;;5.00;99.90;;;;;;4908495;29;19934;-72
2021/11/04 05:25:25;;;;;;;238.73;20.67;;;4.90;99.90;;;;;;4910823;29;20076;-72
2021/11/04 05:27:51;;;;;;;123.60;16.55;;;4.90;99.90;;;;;;4943739;29;20063;-72
2021/11/04 05:30:18;;;;;;;19.63;13.00;;;5.00;99.90;;;;;;4925674;29;20090;-72
2021/11/04 05:32:45;;;;;;;115.90;16.02;;;5.00;99.90;;;;;;4905710;29;20045;-72
2021/11/04 05:35:12;;;;;;;28.25;14.63;;;5.00;99.90;;;;;;4935445;29;20097;-71
2021/11/04 05:37:38;;;;;;;142.73;17.13;;;5.00;99.90;;;;;;4924727;29;20040;-71
2021/11/04 05:40:05;;;;;;;76.13;14.25;;;5.00;99.90;;;;;;4908391;29;20067;-72
2021/11/04 05:42:31;;;;;;;78.18;15.15;;;5.00;99.90;;;;;;4909660;29;20084;-71
2021/11/04 05:44:57;;;;;;;21.25;12.30;;;5.00;99.90;;;;;;4910668;29;20112;-71
2021/11/04 05:47:23;;;;;;;26.45;14.45;;;5.00;99.90;;;;;;4907586;29;20040;-72
2021/11/04 05:49:48;;;;;;;138.40;18.23;;;5.00;99.90;;;;;;4910095;29;20080;-72
2021/11/04 05:52:15;;;;;;;154.07;18.00;;;5.10;99.90;;;;;;4908474;29;20045;-71
2021/11/04 05:54:41;;;;;;;143.73;18.13;;;5.10;99.90;;;;;;4907211;29;20053;-67
2021/11/04 05:57:07;;;;;;;208.55;19.35;;;5.10;99.90;;;;;;4910092;29;20116;-68
2021/11/04 05:59:32;;;;;;;26.25;15.27;;;5.10;99.90;;;;;;4939837;29;20049;-69
2021/11/04 06:01:58;;;;;;;25.25;15.63;;;5.20;99.90;;;;;;4908552;29;20053;-68
2021/11/04 06:04:25;;;;;;;113.50;16.25;;;5.30;99.90;;;;;;4868562;29;20067;-68
2021/11/04 06:06:51;;;;;;;193.18;18.48;;;5.40;99.90;;;;;;4904774;29;20051;-72
2021/11/04 06:09:17;;;;;;;162.45;16.42;;;5.30;99.90;;;;;;4893217;29;20063;-67
2021/11/04 06:11:43;;;;;;;54.63;13.63;;;5.30;99.90;;;;;;4856347;29;20057;-67
2021/11/04 06:14:09;;;;;;;42.80;13.80;;;5.30;99.90;;;;;;4888033;29;20113;-67
2021/11/04 06:16:35;;;;;;;34.15;11.70;;;5.40;99.90;;;;;;4915403;29;20134;-69
2021/11/04 06:19:01;;;;;;;100.70;14.05;;;5.40;99.90;;;;;;4911011;29;20542;-68
2021/11/04 06:21:27;;;;;;;278.48;20.02;;;5.40;99.90;;;;;;4893838;29;20087;-68
2021/11/04 06:23:52;;;;;;;76.35;13.57;;;5.40;99.90;;;;;;4896667;29;20057;-67
2021/11/04 06:26:18;;;;;;;40.50;11.70;;;5.30;99.90;;;;;;4896638;29;20052;-71
2021/11/04 06:28:44;;;;;;;71.00;12.10;;;5.30;99.90;;;;;;4890350;29;20088;-71
2021/11/04 06:31:09;;;;;;;86.53;12.68;;;5.30;99.90;;;;;;4916581;29;20088;-71
2021/11/04 06:33:35;;;;;;;96.00;13.10;;;5.20;99.90;;;;;;4904804;29;20048;-70
2021/11/04 06:36:01;;;;;;;138.75;14.20;;;5.20;99.90;;;;;;4907036;29;20052;-72
2021/11/04 06:38:27;;;;;;;146.98;15.48;;;5.20;99.90;;;;;;4897137;29;20040;-66
2021/11/04 06:40:52;;;;;;;114.50;14.27;;;5.20;99.90;;;;;;4917319;29;20090;-66
2021/11/04 06:43:18;;;;;;;170.32;15.88;;;5.20;99.90;;;;;;4930196;29;20112;-67
2021/11/04 06:45:51;;;;;;;82.47;12.30;;;5.20;99.90;;;;;;4897926;29;20058;-66
2021/11/04 06:48:22;;;;;;;46.42;10.50;;;5.20;99.90;;;;;;4915681;29;20476;-68
2021/11/04 06:50:50;;;;;;;91.43;11.57;;;5.20;99.90;;;;;;4890518;29;20083;-67
2021/11/04 06:53:20;;;;;;;57.95;10.38;;;5.20;99.90;;;;;;4905246;29;20052;-67
2021/11/04 06:55:50;;;;;;;93.07;10.13;;;5.10;99.90;;;;;;4898423;29;20055;-67
2021/11/04 06:58:18;;;;;;;20.38;9.20;;;5.10;99.90;;;;;;4906714;29;20068;-67
2021/11/04 07:00:46;;;;;;;128.10;12.35;;;5.10;99.90;;;;;;4912467;29;20083;-67
2021/11/04 07:03:28;;;;;;;49.20;10.40;;;5.10;99.90;;;;;;4877181;29;20475;-67
2021/11/04 07:06:00;;;;;;;158.35;14.23;;;5.20;99.90;;;;;;4894003;29;20051;-67
2021/11/04 07:08:27;;;;;;;66.22;10.55;;;5.10;99.90;;;;;;4911434;29;20081;-67
2021/11/04 07:11:00;;;;;;;68.70;10.30;;;5.10;99.90;;;;;;4882908;29;20546;-67
2021/11/04 07:13:30;;;;;;;55.15;10.48;;;5.00;99.90;;;;;;4898667;29;20041;-67
2021/11/04 07:15:57;;;;;;;95.15;11.40;;;5.10;99.90;;;;;;4912879;29;20069;-67
2021/11/04 07:18:24;;;;;;;68.10;10.60;;;5.00;99.90;;;;;;4923369;29;20044;-67
2021/11/04 07:21:24;;;;;;;18.35;8.25;;;5.00;99.90;;;;;;4897622;29;20327;-67
2021/11/04 07:23:59;;;;;;;89.22;10.40;;;5.10;99.90;;;;;;4890800;29;20704;-68
2021/11/04 07:26:47;;;;;;;96.78;10.85;;;5.10;99.90;;;;;;4874777;29;20048;-68
2021/11/04 07:29:17;;;;;;;11.50;6.85;;;5.10;99.90;;;;;;4882544;29;20057;-68
2021/11/04 07:31:43;;;;;;;31.92;8.23;;;5.00;99.90;;;;;;4868702;29;20057;-68
2021/11/04 07:34:11;;;;;;;137.27;12.13;;;5.10;99.90;;;;;;4880208;29;20087;-68
2021/11/04 07:36:39;;;;;;;30.77;7.43;;;5.00;99.90;;;;;;4869778;29;20145;-68
2021/11/04 07:39:06;;;;;;;206.18;14.18;;;4.90;99.90;;;;;;4875571;29;20045;-69
2021/11/04 07:41:34;;;;;;;141.73;11.30;;;4.70;99.90;;;;;;4867561;29;20052;-69
2021/11/04 07:44:01;;;;;;;92.63;9.75;;;4.70;99.90;;;;;;4882750;29;20427;-68
2021/11/04 07:46:28;;;;;;;131.00;11.07;;;4.70;99.90;;;;;;4870255;29;20117;-68
2021/11/04 07:48:55;;;;;;;220.30;13.80;;;4.70;99.90;;;;;;4876987;29;20072;-68
2021/11/04 07:51:21;;;;;;;154.30;12.05;;;4.70;99.90;;;;;;4864871;29;20067;-68
2021/11/04 07:53:47;;;;;;;106.47;11.07;;;4.70;99.90;;;;;;4866175;29;20084;-68
2021/11/04 07:56:13;;;;;;;180.18;13.43;;;4.60;99.90;;;;;;4867648;29;20045;-68
2021/11/04 07:58:39;;;;;;;169.70;13.63;;;4.50;99.90;;;;;;4882070;29;20108;-68
2021/11/04 08:01:05;;;;;;;194.70;13.63;;;4.60;99.90;;;;;;4896933;29;20056;-67
2021/11/04 08:03:31;;;;;;;165.18;14.32;;;4.60;99.90;;;;;;4904056;29;20084;-67
2021/11/04 08:05:57;;;;;;;125.03;10.70;;;4.70;99.90;;;;;;4898696;29;20548;-67
2021/11/04 08:08:23;;;;;;;151.52;12.52;;;4.60;99.90;;;;;;4915765;29;20052;-65
2021/11/04 08:10:54;;;;;;;90.32;9.80;;;4.50;99.90;;;;;;4927515;29;20044;-66
2021/11/04 08:13:21;;;;;;;173.30;13.57;;;4.50;99.90;;;;;;4916552;29;20493;-67
2021/11/04 08:15:47;;;;;;;30.00;7.78;;;4.50;99.90;;;;;;4895635;29;20426;-67
2021/11/04 08:18:13;;;;;;;130.35;12.00;;;4.50;99.90;;;;;;4919444;29;20044;-67
2021/11/04 08:20:39;;;;;;;76.30;9.82;;;4.60;99.90;;;;;;4899708;29;20403;-68
2021/11/04 08:23:13;;;;;;;132.25;12.10;;;4.60;99.90;;;;;;4918244;29;20502;-67
2021/11/04 08:25:40;;;;;;;135.00;11.13;;;4.60;99.90;;;;;;4902082;29;20056;-67
2021/11/04 08:28:06;;;;;;;102.25;10.50;;;4.60;99.90;;;;;;4907469;29;20526;-66
2021/11/04 08:30:33;;;;;;;79.00;9.68;;;4.60;99.90;;;;;;4898755;29;20072;-66
2021/11/04 08:32:59;;;;;;;59.70;9.35;;;4.60;99.90;;;;;;4899252;29;20071;-67
2021/11/04 08:35:25;;;;;;;57.70;9.85;;;4.60;99.90;;;;;;4890920;29;20521;-67
2021/11/04 08:37:52;;;;;;;67.60;9.80;;;4.70;99.90;;;;;;4900048;29;20095;-67
2021/11/04 08:40:18;;;;;;;93.90;11.40;;;4.70;99.90;;;;;;4897210;29;20052;-67
2021/11/04 08:42:44;;;;;;;71.60;10.75;;;4.70;99.90;;;;;;4927597;29;20115;-66
2021/11/04 08:45:10;;;;;;;63.15;9.93;;;4.70;99.90;;;;;;4905312;29;20056;-68
2021/11/04 08:47:37;;;;;;;26.95;9.82;;;4.80;99.90;;;;;;4894878;29;20048;-66
2021/11/04 08:50:05;;;;;;;64.28;10.63;;;4.90;99.90;;;;;;4897852;29;20071;-66
2021/11/04 08:52:31;;;;;;;17.58;8.75;;;5.10;99.90;;;;;;4911145;29;20050;-66
2021/11/04 08:54:56;;;;;;;33.40;8.73;;;5.20;99.90;;;;;;4899797;29;20061;-66
2021/11/04 08:57:22;;;;;;;78.22;10.65;;;5.30;99.90;;;;;;4901407;29;20048;-66
2021/11/04 08:59:49;;;;;;;91.75;10.93;;;5.50;99.90;;;;;;4901190;29;20100;-67
2021/11/04 09:02:16;;;;;;;91.72;11.65;;;5.50;99.90;;;;;;4906308;29;20075;-66
2021/11/04 09:04:43;;;;;;;50.90;10.27;;;5.50;99.90;;;;;;4894779;29;20518;-66
2021/11/04 09:07:18;;;;;;;70.50;11.30;;;5.60;99.90;;;;;;4905053;29;20078;-66
2021/11/04 09:09:44;;;;;;;65.60;11.57;;;5.60;99.90;;;;;;4902956;29;20096;-66
2021/11/04 09:12:10;;;;;;;173.05;15.02;;;5.70;99.90;;;;;;4898606;29;20074;-66
2021/11/04 09:14:37;;;;;;;54.08;11.80;;;5.70;99.90;;;;;;4903733;29;20049;-66
2021/11/04 09:17:03;;;;;;;159.73;14.98;;;5.70;99.90;;;;;;4899066;29;20059;-66
2021/11/04 09:19:29;;;;;;;166.43;14.68;;;5.70;99.90;;;;;;4901187;29;20057;-66
2021/11/04 09:21:57;;;;;;;124.20;14.57;;;5.80;99.90;;;;;;4898648;29;20067;-66
2021/11/04 09:24:23;;;;;;;56.17;12.70;;;5.80;99.90;;;;;;4908724;29;20091;-66
2021/11/04 09:26:49;;;;;;;141.52;16.00;;;5.90;99.90;;;;;;4901741;29;20062;-67
2021/11/04 09:29:15;;;;;;;120.07;15.38;;;5.90;99.90;;;;;;4893106;29;20040;-66
2021/11/04 09:31:41;;;;;;;145.88;15.48;;;5.90;99.90;;;;;;4906879;29;20083;-66
2021/11/04 09:34:07;;;;;;;218.32;17.17;;;5.90;99.90;;;;;;4910881;29;20064;-66
2021/11/04 09:36:33;;;;;;;216.07;18.25;;;5.90;99.90;;;;;;4928347;29;20056;-68
2021/11/04 09:39:02;;;;;;;144.63;14.88;;;5.80;99.90;;;;;;4933282;29;20116;-68
2021/11/04 09:41:28;;;;;;;32.55;12.32;;;5.90;99.90;;;;;;4898311;29;20052;-67
2021/11/04 09:43:59;;;;;;;23.10;12.43;;;6.00;99.90;;;;;;4913722;29;20055;-68
2021/11/04 09:46:25;;;;;;;33.20;14.30;;;6.20;99.90;;;;;;4882092;29;20360;-66
2021/11/04 09:48:52;;;;;;;79.07;15.75;;;6.30;99.90;;;;;;4915355;29;20091;-67
2021/11/04 09:51:19;;;;;;;84.13;15.88;;;6.30;99.90;;;;;;4898432;29;20047;-67
2021/11/04 09:53:47;;;;;;;62.17;16.10;;;6.30;99.90;;;;;;4929596;29;20041;-67
2021/11/04 09:56:14;;;;;;;75.97;16.05;;;6.40;99.90;;;;;;4896241;29;20108;-66
2021/11/04 09:58:39;;;;;;;79.85;16.05;;;6.50;99.90;;;;;;4915243;29;20049;-66
2021/11/04 10:01:17;;;;;;;44.50;15.13;;;6.50;99.90;;;;;;4877390;29;20060;-65
2021/11/04 10:03:43;;;;;;;66.20;14.90;;;6.60;99.90;;;;;;4903051;29;20089;-65
2021/11/04 10:06:17;;;;;;;69.63;15.93;;;6.60;99.90;;;;;;4894220;29;20124;-67
2021/11/04 10:08:43;;;;;;;59.40;14.52;;;6.60;99.90;;;;;;4912065;29;20442;-66
2021/11/04 10:11:11;;;;;;;50.10;15.15;;;6.60;99.90;;;;;;4893828;29;20081;-66
2021/11/04 10:13:38;;;;;;;25.00;14.38;;;6.60;99.90;;;;;;4914090;29;20048;-66
2021/11/04 10:16:04;;;;;;;27.88;15.25;;;6.70;99.90;;;;;;4889285;29;20350;-66
2021/11/04 10:18:39;;;;;;;24.73;14.48;;;6.80;99.90;;;;;;4916587;29;20083;-66
2021/11/04 10:21:05;;;;;;;33.97;15.32;;;6.80;99.90;;;;;;4894312;29;20048;-67
2021/11/04 10:23:49;;;;;;;24.77;15.13;;;6.80;99.90;;;;;;4912740;29;20064;-68
2021/11/04 10:26:17;;;;;;;33.05;15.88;;;7.00;99.90;;;;;;4892992;29;20428;-67
2021/11/04 10:28:49;;;;;;;26.80;16.02;;;7.00;99.90;;;;;;4914360;29;20056;-67
2021/11/04 10:31:20;;;;;;;26.40;14.85;;;7.10;99.90;;;;;;4895385;29;20044;-67
2021/11/04 10:33:51;;;;;;;24.10;15.57;;;7.20;99.90;;;;;;4914940;29;20112;-67
2021/11/04 10:36:22;;;;;;;27.73;14.77;;;7.30;99.90;;;;;;4896085;29;20088;-67
2021/11/04 10:38:57;;;;;;;28.63;16.58;;;7.40;99.90;;;;;;4916719;29;20294;-67
2021/11/04 10:41:32;;;;;;;22.65;14.32;;;7.50;99.90;;;;;;4898024;29;20045;-67
2021/11/04 10:44:06;;;;;;;23.83;15.13;;;7.60;99.90;;;;;;4911931;29;20052;-67
2021/11/04 10:46:41;;;;;;;22.20;14.13;;;7.70;99.90;;;;;;4895158;29;20056;-67
2021/11/04 10:49:06;;;;;;;25.05;14.43;;;7.80;99.90;;;;;;4907965;29;20470;-67
2021/11/04 10:51:33;;;;;;;20.13;13.60;;;7.80;99.90;;;;;;4893708;29;20091;-67
2021/11/04 10:54:02;;;;;;;18.27;13.32;;;7.90;99.90;;;;;;4907663;29;20047;-67
2021/11/04 10:56:28;;;;;;;27.83;14.95;;;8.00;99.90;;;;;;4890566;29;20048;-67
2021/11/04 10:58:57;;;;;;;36.17;16.35;;;7.90;99.90;;;;;;4909172;29;20384;-66
2021/11/04 11:01:25;;;;;;;18.63;14.57;;;7.90;99.90;;;;;;4891396;29;20052;-67
2021/11/04 11:03:55;;;;;;;22.35;14.95;;;7.80;99.90;;;;;;4905060;29;20064;-67
2021/11/04 11:06:23;;;;;;;23.30;14.60;;;7.90;99.90;;;;;;4890192;29;20155;-68
2021/11/04 11:08:49;;;;;;;22.33;15.35;;;7.80;99.90;;;;;;4916340;29;20136;-67
2021/11/04 11:11:19;;;;;;;28.92;15.73;;;7.70;99.90;;;;;;4895381;29;20482;-70
2021/11/04 11:13:46;;;;;;;25.15;16.65;;;7.60;99.90;;;;;;4902344;29;20064;-67
2021/11/04 11:16:15;;;;;;;23.23;17.35;;;7.40;99.90;;;;;;4923132;29;20049;-67
2021/11/04 11:18:41;;;;;;;20.42;14.95;;;7.50;99.90;;;;;;4906603;29;20066;-66
2021/11/04 11:21:07;;;;;;;28.02;18.42;;;7.50;99.90;;;;;;4899299;29;20060;-66
2021/11/04 11:23:33;;;;;;;26.55;18.15;;;7.50;99.90;;;;;;4905784;29;20063;-66
2021/11/04 11:26:01;;;;;;;25.23;16.92;;;7.40;99.90;;;;;;4912991;29;20053;-66
2021/11/04 11:28:36;;;;;;;25.30;18.42;;;7.40;99.90;;;;;;4908818;29;20059;-66
2021/11/04 11:31:11;;;;;;;24.75;18.52;;;7.40;99.90;;;;;;4903585;29;20571;-66
2021/11/04 11:34:08;;;;;;;21.13;16.15;;;7.50;99.90;;;;;;4912971;29;20122;-66
2021/11/04 11:36:34;;;;;;;22.23;15.52;;;7.60;99.90;;;;;;4896500;29;20120;-66
2021/11/04 11:39:04;;;;;;;19.23;15.00;;;7.80;99.90;;;;;;4914042;29;20628;-66
2021/11/04 11:41:31;;;;;;;;;;;7.90;99.90;;;;;;4926405;29;20045;-66
2021/11/04 11:43:58;;;;;;;16.50;12.25;;;8.10;99.90;;;;;;4931506;29;19974;-66
2021/11/04 11:46:24;;;;;;;14.77;11.55;;;8.30;99.90;;;;;;4893182;29;20063;-66
2021/11/04 11:49:11;;;;;;;17.90;13.13;;;8.30;99.90;;;;;;4875036;29;20064;-66
2021/11/04 11:51:39;;;;;;;18.35;11.98;;;8.50;99.90;;;;;;4901935;29;20041;-66
2021/11/04 11:54:06;;;;;;;12.70;9.95;;;8.60;99.90;;;;;;4919029;29;20456;-66
2021/11/04 11:56:33;;;;;;;12.20;9.70;;;8.70;99.90;;;;;;4887627;29;20097;-67
2021/11/04 11:59:27;;;;;;;14.65;11.32;;;8.80;99.90;;;;;;4908952;29;20138;-67
2021/11/04 12:01:53;;;;;;;14.20;10.98;;;8.80;99.90;;;;;;4911053;29;20518;-67
2021/11/04 12:04:24;;;;;;;11.65;9.50;;;8.90;99.90;;;;;;4879018;29;20091;-67
2021/11/04 12:06:51;;;;;;;9.95;8.43;;;9.00;99.90;;;;;;4886237;29;20057;-67
2021/11/04 12:09:41;;;;;;;10.48;9.07;;;9.00;99.90;;;;;;4918280;29;20052;-67
2021/11/04 12:12:08;;;;;;;11.13;8.57;;;9.10;99.90;;;;;;4903779;29;20123;-67
2021/11/04 12:14:36;;;;;;;13.23;9.85;;;9.20;99.90;;;;;;4918753;29;20060;-67
2021/11/04 12:17:03;;;;;;;10.63;8.13;;;9.30;99.90;;;;;;4902352;29;20060;-67
2021/11/04 12:19:32;;;;;;;9.98;7.90;;;9.30;99.90;;;;;;4919680;29;20082;-67
2021/11/04 12:21:58;;;;;;;8.90;7.28;;;9.40;99.90;;;;;;4926115;29;20063;-67
2021/11/04 12:24:24;;;;;;;7.38;6.45;;;9.30;99.90;;;;;;4905809;29;20075;-67
2021/11/04 12:26:49;;;;;;;8.90;7.07;;;9.40;99.90;;;;;;4927777;29;20054;-67
2021/11/04 12:29:23;;;;;;;8.00;5.93;;;9.50;99.90;;;;;;4912682;29;20040;-67
2021/11/04 12:31:49;;;;;;;9.57;7.32;;;9.50;99.90;;;;;;4919375;29;20067;-67
2021/11/04 12:34:23;;;;;;;9.90;6.63;;;9.60;99.90;;;;;;4910232;29;20087;-67
2021/11/04 12:36:50;;;;;;;6.93;6.05;;;9.70;99.90;;;;;;4897724;29;20060;-67
2021/11/04 12:39:27;;;;;;;8.43;6.60;;;9.70;99.90;;;;;;4918911;29;20507;-68